sensor_id;sensor_type;location;lat;lon;timestamp;temperature;humidity
53274;DHT22;39163;52.696;6.758;2022-12-11T00:00:15;-0.20;99.90
53274;DHT22;39163;52.696;6.758;2022-12-11T00:02:41;-0.20;99.90
53274;DHT22;39163;52.696;6.758;2022-12-11T00:05:07;-0.10;99.90
53274;DHT22;39163;52.696;6.758;2022-12-11T00:07:33;-0.10;99.90
53274;DHT22;39163;52.696;6.758;2022-12-11T00:09:59;-0.10;99.90
53274;DHT22;39163;52.696;6.758;2022-12-11T00:12:24;-0.10;99.90
53274;DHT22;39163;52.696;6.758;2022-12-11T00:14:50;-0.20;99.90
53274;DHT22;39163;52.696;6.758;2022-12-11T00:17:16;-0.20;99.90
53274;DHT22;39163;52.696;6.758;2022-12-11T00:19:44;-0.20;99.90
53274;DHT22;39163;52.696;6.758;2022-12-11T00:22:10;-0.20;99.90
53274;DHT22;39163;52.696;6.758;2022-12-11T00:24:48;-0.10;99.90
53274;DHT22;39163;52.696;6.758;2022-12-11T00:27:14;-0.20;99.90
53274;DHT22;39163;52.696;6.758;2022-12-11T00:29:39;-0.10;99.90
53274;DHT22;39163;52.696;6.758;2022-12-11T00:32:05;-0.10;99.90
53274;DHT22;39163;52.696;6.758;2022-12-11T00:34:31;-0.10;99.90
53274;DHT22;39163;52.696;6.758;2022-12-11T00:36:57;-0.10;99.90
53274;DHT22;39163;52.696;6.758;2022-12-11T00:39:23;-0.10;99.90
53274;DHT22;39163;52.696;6.758;2022-12-11T00:41:52;-0.10;99.90
53274;DHT22;39163;52.696;6.758;2022-12-11T00:44:21;-0.10;99.90
53274;DHT22;39163;52.696;6.758;2022-12-11T00:46:50;0.10;99.90
53274;DHT22;39163;52.696;6.758;2022-12-11T00:49:16;0.00;99.90
53274;DHT22;39163;52.696;6.758;2022-12-11T00:51:41;0.00;99.90
53274;DHT22;39163;52.696;6.758;2022-12-11T00:54:07;0.00;99.90
53274;DHT22;39163;52.696;6.758;2022-12-11T00:56:33;0.00;99.90
53274;DHT22;39163;52.696;6.758;2022-12-11T00:59:01;0.00;99.90
53274;DHT22;39163;52.696;6.758;2022-12-11T01:01:27;0.00;99.90
53274;DHT22;39163;52.696;6.758;2022-12-11T01:03:56;0.00;99.90
53274;DHT22;39163;52.696;6.758;2022-12-11T01:06:24;0.10;99.90
53274;DHT22;39163;52.696;6.758;2022-12-11T01:08:50;0.10;99.90
53274;DHT22;39163;52.696;6.758;2022-12-11T01:11:40;0.10;99.90
53274;DHT22;39163;52.696;6.758;2022-12-11T01:14:06;0.10;99.90
53274;DHT22;39163;52.696;6.758;2022-12-11T01:16:35;0.10;99.90
53274;DHT22;39163;52.696;6.758;2022-12-11T01:19:01;0.10;99.90
53274;DHT22;39163;52.696;6.758;2022-12-11T01:21:27;0.10;99.90
53274;DHT22;39163;52.696;6.758;2022-12-11T01:23:53;0.10;99.90
53274;DHT22;39163;52.696;6.758;2022-12-11T01:26:19;0.10;99.90
53274;DHT22;39163;52.696;6.758;2022-12-11T01:28:48;0.10;99.90
53274;DHT22;39163;52.696;6.758;2022-12-11T01:31:16;0.10;99.90
53274;DHT22;39163;52.696;6.758;2022-12-11T01:33:45;0.10;99.90
53274;DHT22;39163;52.696;6.758;2022-12-11T01:36:13;0.10;99.90
53274;DHT22;39163;52.696;6.758;2022-12-11T01:38:39;0.10;99.90
53274;DHT22;39163;52.696;6.758;2022-12-11T01:41:08;0.10;99.90
53274;DHT22;39163;52.696;6.758;2022-12-11T01:43:53;0.20;99.90
53274;DHT22;39163;52.696;6.758;2022-12-11T01:46:19;0.20;99.90
53274;DHT22;39163;52.696;6.758;2022-12-11T01:48:45;0.20;99.90
53274;DHT22;39163;52.696;6.758;2022-12-11T01:51:11;0.20;99.90
53274;DHT22;39163;52.696;6.758;2022-12-11T01:53:40;0.20;99.90
53274;DHT22;39163;52.696;6.758;2022-12-11T01:56:07;0.20;99.90
53274;DHT22;39163;52.696;6.758;2022-12-11T01:58:40;0.20;99.90
53274;DHT22;39163;52.696;6.758;2022-12-11T02:01:11;0.20;99.90
53274;DHT22;39163;52.696;6.758;2022-12-11T02:03:39;0.20;99.90
53274;DHT22;39163;52.696;6.758;2022-12-11T02:06:05;0.20;99.90
53274;DHT22;39163;52.696;6.758;2022-12-11T02:08:30;0.20;99.90
53274;DHT22;39163;52.696;6.758;2022-12-11T02:13:43;0.20;99.90
53274;DHT22;39163;52.696;6.758;2022-12-11T02:16:39;0.30;99.90
53274;DHT22;39163;52.696;6.758;2022-12-11T02:19:47;0.30;99.90
53274;DHT22;39163;52.696;6.758;2022-12-11T02:22:41;0.30;99.90
53274;DHT22;39163;52.696;6.758;2022-12-11T02:25:40;0.30;99.90
53274;DHT22;39163;52.696;6.758;2022-12-11T02:28:30;0.30;99.90
53274;DHT22;39163;52.696;6.758;2022-12-11T02:31:34;0.30;99.90
53274;DHT22;39163;52.696;6.758;2022-12-11T02:34:51;0.30;99.90
53274;DHT22;39163;52.696;6.758;2022-12-11T02:37:20;0.30;99.90
53274;DHT22;39163;52.696;6.758;2022-12-11T02:39:51;0.30;99.90
53274;DHT22;39163;52.696;6.758;2022-12-11T02:42:19;0.30;99.90
53274;DHT22;39163;52.696;6.758;2022-12-11T02:44:47;0.30;99.90
53274;DHT22;39163;52.696;6.758;2022-12-11T02:47:15;0.30;99.90
53274;DHT22;39163;52.696;6.758;2022-12-11T02:49:44;0.30;99.90
53274;DHT22;39163;52.696;6.758;2022-12-11T02:52:13;0.30;99.90
53274;DHT22;39163;52.696;6.758;2022-12-11T02:54:42;0.30;99.90
53274;DHT22;39163;52.696;6.758;2022-12-11T02:57:15;0.30;99.90
53274;DHT22;39163;52.696;6.758;2022-12-11T02:59:43;0.30;99.90
53274;DHT22;39163;52.696;6.758;2022-12-11T03:02:11;0.30;99.90
53274;DHT22;39163;52.696;6.758;2022-12-11T03:04:38;0.30;99.90
53274;DHT22;39163;52.696;6.758;2022-12-11T03:07:14;0.40;99.90
53274;DHT22;39163;52.696;6.758;2022-12-11T03:09:45;0.30;99.90
53274;DHT22;39163;52.696;6.758;2022-12-11T03:12:16;0.40;99.90
53274;DHT22;39163;52.696;6.758;2022-12-11T03:14:42;0.40;99.90
53274;DHT22;39163;52.696;6.758;2022-12-11T03:17:21;0.30;99.90
53274;DHT22;39163;52.696;6.758;2022-12-11T03:19:59;0.30;99.90
53274;DHT22;39163;52.696;6.758;2022-12-11T03:22:39;0.30;99.90
53274;DHT22;39163;52.696;6.758;2022-12-11T03:25:15;0.40;99.90
53274;DHT22;39163;52.696;6.758;2022-12-11T03:27:58;0.40;99.90
53274;DHT22;39163;52.696;6.758;2022-12-11T03:30:30;0.40;99.90
53274;DHT22;39163;52.696;6.758;2022-12-11T03:33:05;0.30;99.90
53274;DHT22;39163;52.696;6.758;2022-12-11T03:35:36;0.40;99.90
53274;DHT22;39163;52.696;6.758;2022-12-11T03:38:10;0.40;99.90
53274;DHT22;39163;52.696;6.758;2022-12-11T03:40:39;0.40;99.90
53274;DHT22;39163;52.696;6.758;2022-12-11T03:43:06;0.40;99.90
53274;DHT22;39163;52.696;6.758;2022-12-11T03:45:33;0.40;99.90
53274;DHT22;39163;52.696;6.758;2022-12-11T03:48:00;0.40;99.90
53274;DHT22;39163;52.696;6.758;2022-12-11T03:50:29;0.40;99.90
53274;DHT22;39163;52.696;6.758;2022-12-11T03:52:56;0.40;99.90
53274;DHT22;39163;52.696;6.758;2022-12-11T03:55:24;0.40;99.90
53274;DHT22;39163;52.696;6.758;2022-12-11T03:57:50;0.40;99.90
53274;DHT22;39163;52.696;6.758;2022-12-11T04:00:18;0.40;99.90
53274;DHT22;39163;52.696;6.758;2022-12-11T04:02:44;0.40;99.90
53274;DHT22;39163;52.696;6.758;2022-12-11T04:05:30;0.40;99.90
53274;DHT22;39163;52.696;6.758;2022-12-11T04:07:56;0.50;99.90
53274;DHT22;39163;52.696;6.758;2022-12-11T04:10:21;0.40;99.90
53274;DHT22;39163;52.696;6.758;2022-12-11T04:12:47;0.50;99.90
53274;DHT22;39163;52.696;6.758;2022-12-11T04:15:13;0.50;99.90
53274;DHT22;39163;52.696;6.758;2022-12-11T04:17:38;0.50;99.90
53274;DHT22;39163;52.696;6.758;2022-12-11T04:20:23;0.40;99.90
53274;DHT22;39163;52.696;6.758;2022-12-11T04:23:13;0.40;99.90
53274;DHT22;39163;52.696;6.758;2022-12-11T04:28:30;0.50;99.90
53274;DHT22;39163;52.696;6.758;2022-12-11T04:30:56;0.40;99.90
53274;DHT22;39163;52.696;6.758;2022-12-11T04:33:22;0.50;99.90
53274;DHT22;39163;52.696;6.758;2022-12-11T04:35:47;0.50;99.90
53274;DHT22;39163;52.696;6.758;2022-12-11T04:38:13;0.50;99.90
53274;DHT22;39163;52.696;6.758;2022-12-11T04:40:39;0.50;99.90
53274;DHT22;39163;52.696;6.758;2022-12-11T04:43:04;0.50;99.90
53274;DHT22;39163;52.696;6.758;2022-12-11T04:45:30;0.50;99.90
53274;DHT22;39163;52.696;6.758;2022-12-11T04:47:56;0.50;99.90
53274;DHT22;39163;52.696;6.758;2022-12-11T04:50:21;0.50;99.90
53274;DHT22;39163;52.696;6.758;2022-12-11T04:52:47;0.50;99.90
53274;DHT22;39163;52.696;6.758;2022-12-11T04:55:13;0.60;99.90
53274;DHT22;39163;52.696;6.758;2022-12-11T04:57:39;0.60;99.90
53274;DHT22;39163;52.696;6.758;2022-12-11T05:00:07;0.60;99.90
53274;DHT22;39163;52.696;6.758;2022-12-11T05:02:34;0.60;99.90
53274;DHT22;39163;52.696;6.758;2022-12-11T05:05:01;0.60;99.90
53274;DHT22;39163;52.696;6.758;2022-12-11T05:07:27;0.60;99.90
53274;DHT22;39163;52.696;6.758;2022-12-11T05:09:53;0.60;99.90
53274;DHT22;39163;52.696;6.758;2022-12-11T05:12:19;0.60;99.90
53274;DHT22;39163;52.696;6.758;2022-12-11T05:14:44;0.50;99.90
53274;DHT22;39163;52.696;6.758;2022-12-11T05:17:10;0.60;99.90
53274;DHT22;39163;52.696;6.758;2022-12-11T05:19:36;0.60;99.90
53274;DHT22;39163;52.696;6.758;2022-12-11T05:22:01;0.60;99.90
53274;DHT22;39163;52.696;6.758;2022-12-11T05:24:27;0.60;99.90
53274;DHT22;39163;52.696;6.758;2022-12-11T05:26:53;0.60;99.90
53274;DHT22;39163;52.696;6.758;2022-12-11T05:29:18;0.60;99.90
53274;DHT22;39163;52.696;6.758;2022-12-11T05:31:44;0.60;99.90
53274;DHT22;39163;52.696;6.758;2022-12-11T05:34:10;0.60;99.90
53274;DHT22;39163;52.696;6.758;2022-12-11T05:36:36;0.50;99.90
53274;DHT22;39163;52.696;6.758;2022-12-11T05:39:03;0.50;99.90
53274;DHT22;39163;52.696;6.758;2022-12-11T05:41:30;0.60;99.90
53274;DHT22;39163;52.696;6.758;2022-12-11T05:43:57;0.50;99.90
53274;DHT22;39163;52.696;6.758;2022-12-11T05:46:25;0.50;99.90
53274;DHT22;39163;52.696;6.758;2022-12-11T05:48:54;0.50;99.90
53274;DHT22;39163;52.696;6.758;2022-12-11T05:51:20;0.50;99.90
53274;DHT22;39163;52.696;6.758;2022-12-11T05:53:49;0.50;99.90
53274;DHT22;39163;52.696;6.758;2022-12-11T05:56:23;0.50;99.90
53274;DHT22;39163;52.696;6.758;2022-12-11T05:58:50;0.50;99.90
53274;DHT22;39163;52.696;6.758;2022-12-11T06:01:20;0.50;99.90
53274;DHT22;39163;52.696;6.758;2022-12-11T06:03:47;0.50;99.90
53274;DHT22;39163;52.696;6.758;2022-12-11T06:06:13;0.50;99.90
53274;DHT22;39163;52.696;6.758;2022-12-11T06:08:39;0.50;99.90
53274;DHT22;39163;52.696;6.758;2022-12-11T06:11:05;0.50;99.90
53274;DHT22;39163;52.696;6.758;2022-12-11T06:13:31;0.50;99.90
53274;DHT22;39163;52.696;6.758;2022-12-11T06:16:05;0.50;99.90
53274;DHT22;39163;52.696;6.758;2022-12-11T06:18:43;0.50;99.90
53274;DHT22;39163;52.696;6.758;2022-12-11T06:21:18;0.50;99.90
53274;DHT22;39163;52.696;6.758;2022-12-11T06:23:45;0.50;99.90
53274;DHT22;39163;52.696;6.758;2022-12-11T06:26:12;0.50;99.90
53274;DHT22;39163;52.696;6.758;2022-12-11T06:28:38;0.50;99.90
53274;DHT22;39163;52.696;6.758;2022-12-11T06:31:04;0.50;99.90
53274;DHT22;39163;52.696;6.758;2022-12-11T06:33:30;0.50;99.90
53274;DHT22;39163;52.696;6.758;2022-12-11T06:36:00;0.50;99.90
53274;DHT22;39163;52.696;6.758;2022-12-11T06:38:26;0.50;99.90
53274;DHT22;39163;52.696;6.758;2022-12-11T06:40:56;0.50;99.90
53274;DHT22;39163;52.696;6.758;2022-12-11T06:43:22;0.50;99.90
53274;DHT22;39163;52.696;6.758;2022-12-11T06:45:48;0.50;99.90
53274;DHT22;39163;52.696;6.758;2022-12-11T06:48:14;0.50;99.90
53274;DHT22;39163;52.696;6.758;2022-12-11T06:50:39;0.50;99.90
53274;DHT22;39163;52.696;6.758;2022-12-11T06:53:05;0.50;99.90
53274;DHT22;39163;52.696;6.758;2022-12-11T06:55:34;0.50;99.90
53274;DHT22;39163;52.696;6.758;2022-12-11T06:58:00;0.50;99.90
53274;DHT22;39163;52.696;6.758;2022-12-11T07:00:26;0.60;99.90
53274;DHT22;39163;52.696;6.758;2022-12-11T07:02:51;0.50;99.90
53274;DHT22;39163;52.696;6.758;2022-12-11T07:05:17;0.50;99.90
53274;DHT22;39163;52.696;6.758;2022-12-11T07:07:43;0.50;99.90
53274;DHT22;39163;52.696;6.758;2022-12-11T07:10:09;0.50;99.90
53274;DHT22;39163;52.696;6.758;2022-12-11T07:12:35;0.50;99.90
53274;DHT22;39163;52.696;6.758;2022-12-11T07:15:01;0.60;99.90
53274;DHT22;39163;52.696;6.758;2022-12-11T07:17:28;0.60;99.90
53274;DHT22;39163;52.696;6.758;2022-12-11T07:19:54;0.50;99.90
53274;DHT22;39163;52.696;6.758;2022-12-11T07:22:19;0.50;99.90
53274;DHT22;39163;52.696;6.758;2022-12-11T07:24:45;0.60;99.90
53274;DHT22;39163;52.696;6.758;2022-12-11T07:27:11;0.60;99.90
53274;DHT22;39163;52.696;6.758;2022-12-11T07:29:36;0.60;99.90
53274;DHT22;39163;52.696;6.758;2022-12-11T07:32:03;0.60;99.90
53274;DHT22;39163;52.696;6.758;2022-12-11T07:34:28;0.60;99.90
53274;DHT22;39163;52.696;6.758;2022-12-11T07:37:00;0.50;99.90
53274;DHT22;39163;52.696;6.758;2022-12-11T07:39:29;0.60;99.90
53274;DHT22;39163;52.696;6.758;2022-12-11T07:41:55;0.70;99.90
53274;DHT22;39163;52.696;6.758;2022-12-11T07:44:23;0.60;99.90
53274;DHT22;39163;52.696;6.758;2022-12-11T07:46:52;0.60;99.90
53274;DHT22;39163;52.696;6.758;2022-12-11T07:49:18;0.60;99.90
53274;DHT22;39163;52.696;6.758;2022-12-11T07:51:43;0.60;99.90
53274;DHT22;39163;52.696;6.758;2022-12-11T07:54:11;0.60;99.90
53274;DHT22;39163;52.696;6.758;2022-12-11T07:56:41;0.60;99.90
53274;DHT22;39163;52.696;6.758;2022-12-11T07:59:07;0.60;99.90
53274;DHT22;39163;52.696;6.758;2022-12-11T08:01:34;0.60;99.90
53274;DHT22;39163;52.696;6.758;2022-12-11T08:04:06;0.60;99.90
53274;DHT22;39163;52.696;6.758;2022-12-11T08:06:34;0.60;99.90
53274;DHT22;39163;52.696;6.758;2022-12-11T08:09:10;0.60;99.90
53274;DHT22;39163;52.696;6.758;2022-12-11T08:11:36;0.60;99.90
53274;DHT22;39163;52.696;6.758;2022-12-11T08:14:02;0.60;99.90
53274;DHT22;39163;52.696;6.758;2022-12-11T08:16:31;0.60;99.90
53274;DHT22;39163;52.696;6.758;2022-12-11T08:18:57;0.60;99.90
53274;DHT22;39163;52.696;6.758;2022-12-11T08:21:27;0.60;99.90
53274;DHT22;39163;52.696;6.758;2022-12-11T08:23:59;0.60;99.90
53274;DHT22;39163;52.696;6.758;2022-12-11T08:26:27;0.60;99.90
53274;DHT22;39163;52.696;6.758;2022-12-11T08:28:54;0.60;99.90
53274;DHT22;39163;52.696;6.758;2022-12-11T08:31:30;0.60;99.90
53274;DHT22;39163;52.696;6.758;2022-12-11T08:33:56;0.70;99.90
53274;DHT22;39163;52.696;6.758;2022-12-11T08:36:23;0.60;99.90
53274;DHT22;39163;52.696;6.758;2022-12-11T08:38:50;0.60;99.90
53274;DHT22;39163;52.696;6.758;2022-12-11T08:41:18;0.70;99.90
53274;DHT22;39163;52.696;6.758;2022-12-11T08:43:45;0.60;99.90
53274;DHT22;39163;52.696;6.758;2022-12-11T08:46:11;0.70;99.90
53274;DHT22;39163;52.696;6.758;2022-12-11T08:48:38;0.70;99.90
53274;DHT22;39163;52.696;6.758;2022-12-11T08:51:07;0.70;99.90
53274;DHT22;39163;52.696;6.758;2022-12-11T08:53:33;0.70;99.90
53274;DHT22;39163;52.696;6.758;2022-12-11T08:56:11;0.70;99.90
53274;DHT22;39163;52.696;6.758;2022-12-11T08:58:37;0.80;99.90
53274;DHT22;39163;52.696;6.758;2022-12-11T09:01:14;0.80;99.90
53274;DHT22;39163;52.696;6.758;2022-12-11T09:03:40;0.80;99.90
53274;DHT22;39163;52.696;6.758;2022-12-11T09:06:09;0.80;99.90
53274;DHT22;39163;52.696;6.758;2022-12-11T09:08:45;0.80;99.90
53274;DHT22;39163;52.696;6.758;2022-12-11T09:11:22;0.80;99.90
53274;DHT22;39163;52.696;6.758;2022-12-11T09:13:48;0.80;99.90
53274;DHT22;39163;52.696;6.758;2022-12-11T09:16:16;0.80;99.90
53274;DHT22;39163;52.696;6.758;2022-12-11T09:18:45;0.80;99.90
53274;DHT22;39163;52.696;6.758;2022-12-11T09:21:13;0.70;99.90
53274;DHT22;39163;52.696;6.758;2022-12-11T09:23:42;0.70;99.90
53274;DHT22;39163;52.696;6.758;2022-12-11T09:26:11;0.80;99.90
53274;DHT22;39163;52.696;6.758;2022-12-11T09:28:38;0.80;99.90
53274;DHT22;39163;52.696;6.758;2022-12-11T09:31:15;0.80;99.90
53274;DHT22;39163;52.696;6.758;2022-12-11T09:33:43;0.80;99.90
53274;DHT22;39163;52.696;6.758;2022-12-11T09:36:09;0.80;99.90
53274;DHT22;39163;52.696;6.758;2022-12-11T09:38:36;0.80;99.90
53274;DHT22;39163;52.696;6.758;2022-12-11T09:44:29;0.80;99.90
53274;DHT22;39163;52.696;6.758;2022-12-11T09:46:57;0.80;99.90
53274;DHT22;39163;52.696;6.758;2022-12-11T09:49:41;0.80;99.90
53274;DHT22;39163;52.696;6.758;2022-12-11T09:52:21;0.80;99.90
53274;DHT22;39163;52.696;6.758;2022-12-11T09:54:52;0.80;99.90
53274;DHT22;39163;52.696;6.758;2022-12-11T09:57:45;0.80;99.90
53274;DHT22;39163;52.696;6.758;2022-12-11T10:08:29;0.80;99.90
53274;DHT22;39163;52.696;6.758;2022-12-11T10:16:51;0.80;99.90
53274;DHT22;39163;52.696;6.758;2022-12-11T10:19:24;0.80;99.90
53274;DHT22;39163;52.696;6.758;2022-12-11T10:21:58;0.80;99.90
53274;DHT22;39163;52.696;6.758;2022-12-11T10:24:37;0.90;99.90
53274;DHT22;39163;52.696;6.758;2022-12-11T10:27:19;0.90;99.90
53274;DHT22;39163;52.696;6.758;2022-12-11T10:29:50;0.90;99.90
53274;DHT22;39163;52.696;6.758;2022-12-11T10:32:23;0.90;99.90
53274;DHT22;39163;52.696;6.758;2022-12-11T10:35:02;0.90;99.90
53274;DHT22;39163;52.696;6.758;2022-12-11T10:37:35;0.90;99.90
53274;DHT22;39163;52.696;6.758;2022-12-11T10:40:00;1.00;99.90
53274;DHT22;39163;52.696;6.758;2022-12-11T10:42:32;1.00;99.90
53274;DHT22;39163;52.696;6.758;2022-12-11T10:45:00;1.00;99.90
53274;DHT22;39163;52.696;6.758;2022-12-11T10:47:29;1.00;99.90
53274;DHT22;39163;52.696;6.758;2022-12-11T10:50:00;1.00;99.90
53274;DHT22;39163;52.696;6.758;2022-12-11T10:52:34;0.90;99.90
53274;DHT22;39163;52.696;6.758;2022-12-11T10:55:19;1.00;99.90
53274;DHT22;39163;52.696;6.758;2022-12-11T10:57:57;1.10;99.90
53274;DHT22;39163;52.696;6.758;2022-12-11T11:02:55;1.00;99.90
53274;DHT22;39163;52.696;6.758;2022-12-11T11:05:45;1.00;99.90
53274;DHT22;39163;52.696;6.758;2022-12-11T11:08:18;1.10;99.90
53274;DHT22;39163;52.696;6.758;2022-12-11T11:10:55;1.00;99.90
53274;DHT22;39163;52.696;6.758;2022-12-11T11:13:23;1.10;99.90
53274;DHT22;39163;52.696;6.758;2022-12-11T11:16:07;1.10;99.90
53274;DHT22;39163;52.696;6.758;2022-12-11T11:18:34;1.10;99.90
53274;DHT22;39163;52.696;6.758;2022-12-11T11:21:01;1.10;99.90
53274;DHT22;39163;52.696;6.758;2022-12-11T11:23:27;1.10;99.90
53274;DHT22;39163;52.696;6.758;2022-12-11T11:26:06;1.20;99.90
53274;DHT22;39163;52.696;6.758;2022-12-11T11:28:47;1.20;99.90
53274;DHT22;39163;52.696;6.758;2022-12-11T11:31:14;1.10;99.90
53274;DHT22;39163;52.696;6.758;2022-12-11T11:34:02;1.10;99.90
53274;DHT22;39163;52.696;6.758;2022-12-11T11:36:32;1.10;99.90
53274;DHT22;39163;52.696;6.758;2022-12-11T11:41:47;1.10;99.90
53274;DHT22;39163;52.696;6.758;2022-12-11T11:44:19;1.20;99.90
53274;DHT22;39163;52.696;6.758;2022-12-11T11:47:20;1.10;99.90
53274;DHT22;39163;52.696;6.758;2022-12-11T11:49:56;1.10;99.90
53274;DHT22;39163;52.696;6.758;2022-12-11T11:52:45;1.10;99.90
53274;DHT22;39163;52.696;6.758;2022-12-11T11:55:33;1.20;99.90
53274;DHT22;39163;52.696;6.758;2022-12-11T11:58:05;1.20;99.90
53274;DHT22;39163;52.696;6.758;2022-12-11T12:00:33;1.20;99.90
53274;DHT22;39163;52.696;6.758;2022-12-11T12:03:01;1.20;99.90
53274;DHT22;39163;52.696;6.758;2022-12-11T12:08:16;1.20;99.90
53274;DHT22;39163;52.696;6.758;2022-12-11T12:11:06;1.20;99.90
53274;DHT22;39163;52.696;6.758;2022-12-11T12:21:35;1.30;99.90
53274;DHT22;39163;52.696;6.758;2022-12-11T12:27:01;1.30;99.90
53274;DHT22;39163;52.696;6.758;2022-12-11T12:35:36;1.30;99.90
53274;DHT22;39163;52.696;6.758;2022-12-11T12:38:22;1.30;99.90
53274;DHT22;39163;52.696;6.758;2022-12-11T12:43:49;1.20;99.90
53274;DHT22;39163;52.696;6.758;2022-12-11T12:47:17;1.20;99.90
53274;DHT22;39163;52.696;6.758;2022-12-11T12:49:15;1.20;99.90
53274;DHT22;39163;52.696;6.758;2022-12-11T12:51:42;1.20;99.90
53274;DHT22;39163;52.696;6.758;2022-12-11T12:54:14;1.20;99.90
53274;DHT22;39163;52.696;6.758;2022-12-11T12:56:41;1.20;99.90
53274;DHT22;39163;52.696;6.758;2022-12-11T12:59:20;1.20;99.90
53274;DHT22;39163;52.696;6.758;2022-12-11T13:01:49;1.20;99.90
53274;DHT22;39163;52.696;6.758;2022-12-11T13:04:54;1.20;99.90
53274;DHT22;39163;52.696;6.758;2022-12-11T13:07:24;1.20;99.90
53274;DHT22;39163;52.696;6.758;2022-12-11T13:12:41;1.20;99.90
53274;DHT22;39163;52.696;6.758;2022-12-11T13:17:54;1.30;99.90
53274;DHT22;39163;52.696;6.758;2022-12-11T13:20:23;1.30;99.90
53274;DHT22;39163;52.696;6.758;2022-12-11T13:38:45;1.20;99.90
53274;DHT22;39163;52.696;6.758;2022-12-11T13:41:12;1.20;99.90
53274;DHT22;39163;52.696;6.758;2022-12-11T13:43:40;1.20;99.90
53274;DHT22;39163;52.696;6.758;2022-12-11T13:46:11;1.20;99.90
53274;DHT22;39163;52.696;6.758;2022-12-11T13:48:46;1.20;99.90
53274;DHT22;39163;52.696;6.758;2022-12-11T13:51:15;1.20;99.90
53274;DHT22;39163;52.696;6.758;2022-12-11T13:53:41;1.20;99.90
53274;DHT22;39163;52.696;6.758;2022-12-11T13:56:16;1.20;99.90
53274;DHT22;39163;52.696;6.758;2022-12-11T13:58:42;1.20;99.90
53274;DHT22;39163;52.696;6.758;2022-12-11T14:01:24;1.30;99.90
53274;DHT22;39163;52.696;6.758;2022-12-11T14:04:18;1.20;99.90
53274;DHT22;39163;52.696;6.758;2022-12-11T14:06:42;1.20;99.90
53274;DHT22;39163;52.696;6.758;2022-12-11T14:09:08;1.30;99.90
53274;DHT22;39163;52.696;6.758;2022-12-11T14:11:39;1.20;99.90
53274;DHT22;39163;52.696;6.758;2022-12-11T14:14:18;1.20;99.90
53274;DHT22;39163;52.696;6.758;2022-12-11T14:16:49;1.20;99.90
53274;DHT22;39163;52.696;6.758;2022-12-11T14:19:19;1.20;99.90
53274;DHT22;39163;52.696;6.758;2022-12-11T14:22:02;1.20;99.90
53274;DHT22;39163;52.696;6.758;2022-12-11T14:24:29;1.20;99.90
53274;DHT22;39163;52.696;6.758;2022-12-11T14:26:55;1.20;99.90
53274;DHT22;39163;52.696;6.758;2022-12-11T14:29:27;1.10;99.90
53274;DHT22;39163;52.696;6.758;2022-12-11T14:31:55;1.20;99.90
53274;DHT22;39163;52.696;6.758;2022-12-11T14:34:27;1.20;99.90
53274;DHT22;39163;52.696;6.758;2022-12-11T14:36:55;1.10;99.90
53274;DHT22;39163;52.696;6.758;2022-12-11T14:40:04;1.10;99.90
53274;DHT22;39163;52.696;6.758;2022-12-11T14:42:39;1.10;99.90
53274;DHT22;39163;52.696;6.758;2022-12-11T14:45:32;1.10;99.90
53274;DHT22;39163;52.696;6.758;2022-12-11T14:48:00;1.10;99.90
53274;DHT22;39163;52.696;6.758;2022-12-11T14:50:39;1.10;99.90
53274;DHT22;39163;52.696;6.758;2022-12-11T14:53:20;1.20;99.90
53274;DHT22;39163;52.696;6.758;2022-12-11T14:55:47;1.10;99.90
53274;DHT22;39163;52.696;6.758;2022-12-11T14:58:20;1.10;99.90
53274;DHT22;39163;52.696;6.758;2022-12-11T15:01:05;1.10;99.90
53274;DHT22;39163;52.696;6.758;2022-12-11T15:03:33;1.10;99.90
53274;DHT22;39163;52.696;6.758;2022-12-11T15:06:00;1.10;99.90
53274;DHT22;39163;52.696;6.758;2022-12-11T15:08:31;1.10;99.90
53274;DHT22;39163;52.696;6.758;2022-12-11T15:11:12;1.10;99.90
53274;DHT22;39163;52.696;6.758;2022-12-11T15:13:51;1.10;99.90
53274;DHT22;39163;52.696;6.758;2022-12-11T15:16:18;1.10;99.90
53274;DHT22;39163;52.696;6.758;2022-12-11T15:18:48;1.10;99.90
53274;DHT22;39163;52.696;6.758;2022-12-11T15:21:15;1.10;99.90
53274;DHT22;39163;52.696;6.758;2022-12-11T15:23:58;1.00;99.90
53274;DHT22;39163;52.696;6.758;2022-12-11T15:26:43;1.00;99.90
53274;DHT22;39163;52.696;6.758;2022-12-11T15:34:56;1.00;99.90
53274;DHT22;39163;52.696;6.758;2022-12-11T15:37:31;1.00;99.90
53274;DHT22;39163;52.696;6.758;2022-12-11T15:39:59;1.00;99.90
53274;DHT22;39163;52.696;6.758;2022-12-11T15:44:52;1.10;99.90
53274;DHT22;39163;52.696;6.758;2022-12-11T15:47:23;1.00;99.90
53274;DHT22;39163;52.696;6.758;2022-12-11T15:49:49;1.00;99.90
53274;DHT22;39163;52.696;6.758;2022-12-11T15:52:18;1.00;99.90
53274;DHT22;39163;52.696;6.758;2022-12-11T15:54:43;1.00;99.90
53274;DHT22;39163;52.696;6.758;2022-12-11T15:57:13;1.00;99.90
53274;DHT22;39163;52.696;6.758;2022-12-11T15:59:41;0.90;99.90
53274;DHT22;39163;52.696;6.758;2022-12-11T16:02:13;0.90;99.90
53274;DHT22;39163;52.696;6.758;2022-12-11T16:04:39;0.90;99.90
53274;DHT22;39163;52.696;6.758;2022-12-11T16:07:14;0.90;99.90
53274;DHT22;39163;52.696;6.758;2022-12-11T16:09:40;1.00;99.90
53274;DHT22;39163;52.696;6.758;2022-12-11T16:12:06;0.90;99.90
53274;DHT22;39163;52.696;6.758;2022-12-11T16:14:32;0.90;99.90
53274;DHT22;39163;52.696;6.758;2022-12-11T16:17:03;0.90;99.90
53274;DHT22;39163;52.696;6.758;2022-12-11T16:19:29;0.90;99.90
53274;DHT22;39163;52.696;6.758;2022-12-11T16:21:54;0.90;99.90
53274;DHT22;39163;52.696;6.758;2022-12-11T16:24:20;0.90;99.90
53274;DHT22;39163;52.696;6.758;2022-12-11T16:26:46;0.90;99.90
53274;DHT22;39163;52.696;6.758;2022-12-11T16:29:12;1.00;99.90
53274;DHT22;39163;52.696;6.758;2022-12-11T16:31:38;0.90;99.90
53274;DHT22;39163;52.696;6.758;2022-12-11T16:34:03;0.90;99.90
53274;DHT22;39163;52.696;6.758;2022-12-11T16:36:29;0.90;99.90
53274;DHT22;39163;52.696;6.758;2022-12-11T16:38:55;1.00;99.90
53274;DHT22;39163;52.696;6.758;2022-12-11T16:41:22;0.90;99.90
53274;DHT22;39163;52.696;6.758;2022-12-11T16:43:47;0.90;99.90
53274;DHT22;39163;52.696;6.758;2022-12-11T16:46:21;0.90;99.90
53274;DHT22;39163;52.696;6.758;2022-12-11T16:48:48;0.90;99.90
53274;DHT22;39163;52.696;6.758;2022-12-11T16:51:13;0.90;99.90
53274;DHT22;39163;52.696;6.758;2022-12-11T16:53:39;0.90;99.90
53274;DHT22;39163;52.696;6.758;2022-12-11T16:56:05;0.80;99.90
53274;DHT22;39163;52.696;6.758;2022-12-11T16:58:31;0.90;99.90
53274;DHT22;39163;52.696;6.758;2022-12-11T17:00:57;0.90;99.90
53274;DHT22;39163;52.696;6.758;2022-12-11T17:03:33;0.90;99.90
53274;DHT22;39163;52.696;6.758;2022-12-11T17:05:58;0.90;99.90
53274;DHT22;39163;52.696;6.758;2022-12-11T17:08:24;0.90;99.90
53274;DHT22;39163;52.696;6.758;2022-12-11T17:10:51;0.90;99.90
53274;DHT22;39163;52.696;6.758;2022-12-11T17:13:17;0.80;99.90
53274;DHT22;39163;52.696;6.758;2022-12-11T17:15:44;0.90;99.90
53274;DHT22;39163;52.696;6.758;2022-12-11T17:18:10;0.90;99.90
53274;DHT22;39163;52.696;6.758;2022-12-11T17:20:40;0.90;99.90
53274;DHT22;39163;52.696;6.758;2022-12-11T17:23:07;0.90;99.90
53274;DHT22;39163;52.696;6.758;2022-12-11T17:25:38;0.80;99.90